Time;durP1;ratioP1;P1;durP2;ratioP2;P2;SDS_P1;SDS_P2;PMS_P1;PMS_P2;Temp;Humidity;BMP_temperature;BMP_pressure;BME280_temperature;BME280_humidity;BME280_pressure;Samples;Min_cycle;Max_cycle;Signal;HPM_P1;HPM_P2
2021/06/16 18:14:48;;;;;;;6.90;4.20;;;;;;;28.16;51.38;99230.54;4577743;75;63206;-85
2021/06/16 18:20:49;;;;;;;7.67;4.37;;;;;;;30.15;46.18;99240.39;4506301;77;28463;-84
2021/06/16 18:26:51;;;;;;;5.33;4.30;;;;;;;29.69;46.15;99241.39;4496777;77;28512;-87
2021/06/16 18:32:53;;;;;;;8.10;4.25;;;;;;;29.38;47.12;99247.06;4468549;77;28522;-87
2021/06/16 18:38:55;;;;;;;10.98;5.25;;;;;;;29.69;46.97;99249.11;4497293;77;28499;-86
2021/06/16 18:44:58;;;;;;;5.42;4.62;;;;;;;28.71;50.60;99253.81;4502813;77;28488;-85
2021/06/16 18:50:59;;;;;;;6.53;4.75;;;;;;;28.59;51.09;99261.55;4370105;80;28526;-85
2021/06/16 18:57:01;;;;;;;9.95;5.85;;;;;;;28.49;52.07;99266.39;4359800;80;28515;-87
2021/06/16 19:09:10;;;;;;;7.47;5.05;;;;;;;27.64;57.03;99274.20;4418618;78;28508;-86
2021/06/16 19:15:12;;;;;;;7.95;5.28;;;;;;;27.02;65.24;99279.42;4411911;78;28501;-86
2021/06/16 19:21:14;;;;;;;7.47;4.72;;;;;;;26.72;62.21;99282.45;4421081;78;28507;-86
2021/06/16 19:27:17;;;;;;;10.38;7.80;;;;;;;26.16;69.76;99287.47;4395021;78;28469;-87
2021/06/16 19:33:18;;;;;;;12.25;5.85;;;;;;;26.36;63.43;99287.11;4411348;78;28519;-88
2021/06/16 19:39:21;;;;;;;11.38;5.70;;;;;;;25.86;71.46;99287.98;4402063;78;28535;-88
2021/06/16 19:45:22;;;;;;;9.45;6.00;;;;;;;25.61;70.79;99291.83;4388992;78;28460;-86
2021/06/16 19:51:24;;;;;;;10.63;7.42;;;;;;;25.51;69.32;99296.29;4395488;78;28531;-85
2021/06/16 19:57:26;;;;;;;8.95;6.40;;;;;;;25.24;71.41;99296.86;4336226;80;28936;-87
2021/06/16 20:03:29;;;;;;;11.78;6.50;;;;;;;25.09;73.18;99300.89;4340705;80;28450;-85
2021/06/16 20:09:30;;;;;;;13.80;8.28;;;;;;;24.84;74.59;99300.55;4426367;78;28486;-87
2021/06/16 20:15:32;;;;;;;10.98;7.12;;;;;;;24.84;75.89;99306.05;4329620;80;28533;-88
2021/06/16 20:21:34;;;;;;;10.20;6.90;;;;;;;24.42;77.65;99311.86;4375591;80;28548;-87
2021/06/16 20:27:35;;;;;;;13.65;7.45;;;;;;;24.28;78.55;99305.09;4333516;80;28450;-82
2021/06/16 20:33:37;;;;;;;9.23;7.10;;;;;;;24.19;79.37;99312.73;4370599;79;28442;-83
2021/06/16 20:39:38;;;;;;;9.93;7.10;;;;;;;24.20;77.46;99317.09;4353809;79;28476;-85
2021/06/16 20:45:39;;;;;;;13.65;8.95;;;;;;;24.27;75.32;99320.78;4375462;79;28446;-84
2021/06/16 20:51:41;;;;;;;12.10;8.23;;;;;;;24.11;75.72;99333.30;4338233;80;28453;-88
2021/06/16 20:57:44;;;;;;;10.55;7.65;;;;;;;23.78;81.43;99335.72;4359188;80;28478;-87
2021/06/16 21:03:48;;;;;;;15.23;9.73;;;;;;;23.61;81.91;99353.70;4336209;80;28460;-87
2021/06/16 21:09:50;;;;;;;13.40;8.88;;;;;;;23.64;78.63;99357.77;4338745;80;28486;-87
2021/06/16 21:15:52;;;;;;;12.55;8.68;;;;;;;23.60;80.43;99364.43;4321311;81;28459;-85
2021/06/16 21:21:58;;;;;;;12.37;8.98;;;;;;;23.55;80.10;99361.80;4336347;81;28493;-84
2021/06/16 21:27:58;;;;;;;14.10;9.20;;;;;;;23.57;76.87;99366.98;4337141;80;28490;-85
2021/06/16 21:33:59;;;;;;;13.45;9.20;;;;;;;23.34;79.03;99364.21;4313280;80;28523;-83
2021/06/16 21:40:00;;;;;;;11.40;8.88;;;;;;;23.34;79.68;99363.63;4307111;82;28488;-82
2021/06/16 21:46:02;;;;;;;15.83;9.68;;;;;;;23.35;79.07;99367.20;4314641;80;28528;-82
2021/06/16 21:52:04;;;;;;;12.28;9.50;;;;;;;23.40;78.02;99362.95;4332695;82;28547;-81
2021/06/16 21:58:06;;;;;;;13.45;9.20;;;;;;;23.39;79.49;99368.20;4304553;80;28695;-82
2021/06/16 22:04:08;;;;;;;15.05;9.85;;;;;;;23.90;72.86;99371.68;4320677;80;28442;-81
2021/06/16 22:10:11;;;;;;;18.45;10.45;;;;;;;23.82;72.78;99372.42;4334704;80;28472;-82
2021/06/16 22:16:12;;;;;;;13.08;9.18;;;;;;;23.44;76.23;99379.61;4331640;80;28500;-86
2021/06/16 22:22:16;;;;;;;20.68;11.90;;;;;;;23.37;76.39;99389.06;4262022;81;28449;-84
2021/06/16 22:28:17;;;;;;;13.60;10.00;;;;;;;23.61;74.72;99385.81;4367209;80;28452;-84
2021/06/16 22:34:18;;;;;;;14.53;10.45;;;;;;;23.64;75.69;99387.38;4269712;82;28453;-84
2021/06/16 22:40:25;;;;;;;18.35;11.35;;;;;;;23.19;80.29;99389.44;4328098;80;28487;-84
2021/06/16 22:46:26;;;;;;;;;;;;;;;22.96;83.42;99388.54;4376432;80;28444;-85
2021/06/16 22:52:27;;;;;;;14.75;11.18;;;;;;;23.00;83.16;99386.00;4374696;80;20338;-84
2021/06/16 22:58:29;;;;;;;17.82;11.35;;;;;;;22.92;81.31;99386.99;4279446;81;28489;-85
2021/06/16 23:04:30;;;;;;;17.20;10.75;;;;;;;22.83;82.41;99376.48;4351339;80;28540;-84
2021/06/16 23:10:31;;;;;;;16.30;11.65;;;;;;;22.47;88.21;99378.50;4277859;82;28517;-84
2021/06/16 23:16:33;;;;;;;18.98;12.13;;;;;;;22.48;86.48;99378.21;4294083;80;28457;-84
2021/06/16 23:22:34;;;;;;;15.65;12.43;;;;;;;22.46;85.69;99378.25;4374940;79;28465;-85
2021/06/16 23:28:36;;;;;;;22.70;13.98;;;;;;;21.97;90.93;99376.63;4389895;79;28439;-83
2021/06/16 23:34:37;;;;;;;20.50;13.18;;;;;;;22.10;90.08;99379.16;4379677;79;28437;-84
2021/06/16 23:40:39;;;;;;;21.52;13.20;;;;;;;21.99;91.27;99377.70;4379524;79;28466;-84
2021/06/16 23:46:41;;;;;;;17.37;11.53;;;;;;;22.41;86.07;99377.24;4368338;80;28464;-84
2021/06/16 23:52:42;;;;;;;18.17;12.60;;;;;;;22.17;89.22;99377.40;4359513;80;28512;-83
2021/06/16 23:58:44;;;;;;;19.77;12.90;;;;;;;21.71;91.57;99374.86;4348030;80;28456;-83
